Flight Track Log - Related Links

Times and Time Zones

All times are in EDT time to prevent confusion due to time zone crossing. See the RPA3392 flight status page for this flight to view local times or setup timezone preferences in your user account.

Time Position Orientation Groundspeed Altitude Reporting Facility
EDT Latitude Longitude Course Direction KTS MPH feet Rate Location/Type
Sun 10:13:04 PM 38.8000 -77.0333 83° East 181 208 1,900  Level Potomac TRACON
Sun 10:14:00 PM 38.9716 -76.6735 57° Northeast  Level FlightAware Approximate
Sun 10:14:10 PM 38.7667 -76.9833 131° Southeast 241 277 5,200  Level Potomac TRACON
Sun 10:15:00 PM 39.0206 -76.5549 67° East  Level FlightAware Approximate
Sun 10:15:10 PM 38.8333 -76.9333 30° Northeast 303 349 7,500  Level Potomac TRACON
Sun 10:16:00 PM 39.0665 -76.4338 63° Northeast  Level FlightAware Approximate
Sun 10:16:04 PM 38.9167 -76.9000 17° North 306 352 10,300  Level Potomac TRACON
Sun 10:17:00 PM 39.1167 -76.3155 90° East  Level FlightAware Approximate
Sun 10:18:00 PM 39.1519 -76.1975 83° East  Level FlightAware Approximate
Sun 10:18:07 PM 39.0597 -76.7839 32° Northeast 339 390 15,000  Level Washington Center
Sun 10:19:08 PM 39.0983 -76.6694 66° East 329 379 17,500 1,983 Climbing Washington Center
Sun 10:20:08 PM 39.1119 -76.5358 82° East 336 387 19,000 1,587 Climbing Washington Center
Sun 10:21:09 PM 39.1231 -76.4264 83° East 348 400 20,700 1,884 Climbing Washington Center
Sun 10:22:09 PM 39.1450 -76.2553 81° East 385 443 22,800 1,169 Climbing Washington Center
Sun 10:23:07 PM 39.1664 -76.1244 78° East 408 470 23,000 153 Climbing Washington Center
Sun 10:24:07 PM 39.1817 -75.9797 82° East 408 470 23,100 750 Climbing Washington Center
Sun 10:25:07 PM 39.2214 -75.8461 69° East 403 464 24,500 1,438 Climbing Washington Center
Sun 10:26:08 PM 39.3031 -75.7392 45° Northeast 391 450 26,000 1,240 Climbing Washington Center
Sun 10:27:08 PM 39.3844 -75.6319 46° Northeast 402 463 27,000 496 Climbing Washington Center
Sun 10:28:09 PM 39.4697 -75.5244 44° Northeast 407 468 27,000  Level Washington Center
Sun 10:29:07 PM 39.5531 -75.4139 46° Northeast 413 475 27,000  Level Washington Center
Sun 10:30:07 PM 39.6381 -75.3033 45° Northeast 419 482 27,000  Level Washington Center
Sun 10:31:08 PM 39.7233 -75.1842 47° Northeast 431 496 27,000  Level Washington Center
Sun 10:31:28 PM 39.7489 -75.1422 52° Northeast 449 517 27,000  Level New York Center
Sun 10:32:27 PM 39.8347 -75.0206 47° Northeast 461 531 27,000  Level New York Center
Sun 10:33:29 PM 39.9311 -74.8883 46° Northeast 456 525 27,000  Level New York Center
Sun 10:34:29 PM 40.0078 -74.7844 46° Northeast 451 519 27,000  Level New York Center
Sun 10:35:28 PM 40.1164 -74.7147 26° Northeast 428 493 27,000  Level New York Center
Sun 10:36:29 PM 40.2344 -74.6753 14° North 417 480 27,000  Level New York Center
Sun 10:37:28 PM 40.3483 -74.6353 15° North 417 480 27,000  Level New York Center
Sun 10:38:28 PM 40.4664 -74.5956 14° North 422 486 27,000  Level New York Center
Sun 10:39:28 PM 40.5842 -74.5583 13° North 422 486 27,000  Level New York Center
Sun 10:40:30 PM 40.7003 -74.5156 16° North 422 486 27,000  Level New York Center
Sun 10:41:28 PM 40.8158 -74.4781 14° North 422 486 27,000 -314 Level New York Center
Sun 10:43:41 PM 41.0936 -74.3872 14° North 434 499 26,000 -311 Descending Boston Center
Sun 10:44:41 PM 41.1942 -74.3517 15° North 434 499 26,000  Level Boston Center
Sun 10:45:41 PM 41.3181 -74.3028 17° North 420 483 26,000  Level Boston Center
Sun 10:46:41 PM 41.4311 -74.2647 14° North 420 483 26,000 -458 Level Boston Center
Sun 10:48:05 PM 41.5653 -74.2214 14° North 426 490 24,900 -1,542 Descending Boston Center
Sun 10:49:05 PM 41.6994 -74.1750 14° North 426 490 22,300 -2,200 Descending Boston Center
Sun 10:50:05 PM 41.8189 -74.1339 14° North 412 474 20,500 -2,651 Descending Boston Center
Sun 10:50:31 PM 41.8544 -74.1236 12° North 398 458 18,500 -2,900 Descending Boston Center
Sun 10:51:05 PM 41.9025 -74.1025 18° North 380 437 17,600 -2,234 Descending Boston Center
Sun 10:52:05 PM 42.0136 -74.0636 15° North 366 421 15,000 -2,100 Descending Boston Center
Sun 10:53:05 PM 42.1058 -74.0325 14° North 351 404 13,400 -1,600 Descending Boston Center
Sun 10:54:05 PM 42.1853 -74.0147 North 329 379 11,800 -1,296 Descending Boston Center
Sun 10:55:10 PM 42.2875 -73.9950 North 312 359 10,700 -1,048 Descending Boston Center
Sun 10:56:11 PM 42.3669 -73.9800 North 293 337 9,600 -1,240 Descending Boston Center
Sun 10:57:11 PM 42.4528 -73.9653 North 286 329 8,200 -1,339 Descending Boston Center
Sun 10:58:12 PM 42.5300 -73.9503 North 285 328 6,900 -1,475 Descending Boston Center
Sun 10:59:13 PM 42.6094 -73.9381 North 279 321 5,200 -1,247 Descending Boston Center
Sun 10:59:29 PM 42.6072 -73.9381 180° South 289 333 5,300 -1,200 Climbing Boston Center
Sun 11:00:13 PM 42.6867 -73.9200 North 281 323 4,000 -1,300 Descending Boston Center
Sun 11:00:29 PM 42.6992 -73.9147 17° North 289 333 4,000  Level Boston Center
Sun 11:01:14 PM 42.7661 -73.9022 North 287 330 4,000  Level Boston Center
Sun 11:01:29 PM 42.7767 -73.8997 10° North 283 326 4,000 -885 Level Boston Center
Sun 11:02:15 PM 42.8433 -73.9011 359° North 275 316 3,100 -962 Descending Boston Center
Sun 11:03:15 PM 42.9061 -73.8772 16° North 240 276 2,300 -545 Descending Boston Center
Sun 11:04:16 PM 42.8861 -73.8144 113° Southeast 159 183 2,000 -149 Descending Boston Center
Sun 11:05:16 PM 42.8486 -73.8136 179° South 123 142 2,000  Level Boston Center

Login

Don't have an account? Register now (free) for customized features, flight alerts, and more!